sensor_id;sensor_type;location;lat;lon;timestamp;P1;durP1;ratioP1;P2;durP2;ratioP2
18917;SDS011;9591;52.742;13.650;2022-10-16T00:00:12;4.03;;;3.37;;
18917;SDS011;9591;52.742;13.650;2022-10-16T00:02:59;5.40;;;3.40;;
18917;SDS011;9591;52.742;13.650;2022-10-16T00:05:48;3.50;;;2.60;;
18917;SDS011;9591;52.742;13.650;2022-10-16T00:08:35;4.83;;;2.97;;
18917;SDS011;9591;52.742;13.650;2022-10-16T00:11:23;6.27;;;3.20;;
18917;SDS011;9591;52.742;13.650;2022-10-16T00:14:13;5.97;;;3.10;;
18917;SDS011;9591;52.742;13.650;2022-10-16T00:17:00;3.43;;;3.13;;
18917;SDS011;9591;52.742;13.650;2022-10-16T00:19:47;3.70;;;2.70;;
18917;SDS011;9591;52.742;13.650;2022-10-16T00:22:36;3.80;;;3.03;;
18917;SDS011;9591;52.742;13.650;2022-10-16T00:25:22;3.43;;;3.10;;
18917;SDS011;9591;52.742;13.650;2022-10-16T00:28:09;4.30;;;2.57;;
18917;SDS011;9591;52.742;13.650;2022-10-16T00:30:56;3.57;;;2.93;;
18917;SDS011;9591;52.742;13.650;2022-10-16T00:33:43;5.43;;;2.83;;
18917;SDS011;9591;52.742;13.650;2022-10-16T00:36:30;4.90;;;3.13;;
18917;SDS011;9591;52.742;13.650;2022-10-16T00:39:18;3.13;;;2.83;;
18917;SDS011;9591;52.742;13.650;2022-10-16T00:42:05;4.60;;;3.20;;
18917;SDS011;9591;52.742;13.650;2022-10-16T00:44:52;5.77;;;3.10;;
18917;SDS011;9591;52.742;13.650;2022-10-16T00:47:43;7.30;;;3.17;;
18917;SDS011;9591;52.742;13.650;2022-10-16T00:50:34;6.50;;;3.30;;
18917;SDS011;9591;52.742;13.650;2022-10-16T00:53:20;3.83;;;3.17;;
18917;SDS011;9591;52.742;13.650;2022-10-16T00:56:09;5.17;;;2.80;;
18917;SDS011;9591;52.742;13.650;2022-10-16T00:58:56;3.40;;;2.83;;
18917;SDS011;9591;52.742;13.650;2022-10-16T01:01:45;3.90;;;3.30;;
18917;SDS011;9591;52.742;13.650;2022-10-16T01:04:34;5.40;;;3.03;;
18917;SDS011;9591;52.742;13.650;2022-10-16T01:07:27;4.80;;;3.20;;
18917;SDS011;9591;52.742;13.650;2022-10-16T01:10:25;4.17;;;3.40;;
18917;SDS011;9591;52.742;13.650;2022-10-16T01:13:20;4.47;;;3.20;;
18917;SDS011;9591;52.742;13.650;2022-10-16T01:16:12;6.47;;;2.87;;
18917;SDS011;9591;52.742;13.650;2022-10-16T01:19:03;4.07;;;3.13;;
18917;SDS011;9591;52.742;13.650;2022-10-16T01:21:55;5.77;;;3.07;;
18917;SDS011;9591;52.742;13.650;2022-10-16T01:24:44;4.80;;;2.50;;
18917;SDS011;9591;52.742;13.650;2022-10-16T01:27:36;3.87;;;3.20;;
18917;SDS011;9591;52.742;13.650;2022-10-16T01:30:29;5.43;;;2.80;;
18917;SDS011;9591;52.742;13.650;2022-10-16T01:33:20;3.03;;;2.40;;
18917;SDS011;9591;52.742;13.650;2022-10-16T01:36:13;7.87;;;2.93;;
18917;SDS011;9591;52.742;13.650;2022-10-16T01:39:03;4.53;;;3.03;;
18917;SDS011;9591;52.742;13.650;2022-10-16T01:41:54;5.03;;;2.53;;
18917;SDS011;9591;52.742;13.650;2022-10-16T01:44:47;8.60;;;2.70;;
18917;SDS011;9591;52.742;13.650;2022-10-16T01:47:36;7.23;;;2.70;;
18917;SDS011;9591;52.742;13.650;2022-10-16T01:50:24;3.40;;;2.57;;
18917;SDS011;9591;52.742;13.650;2022-10-16T01:53:11;3.27;;;2.77;;
18917;SDS011;9591;52.742;13.650;2022-10-16T01:56:00;3.53;;;2.70;;
18917;SDS011;9591;52.742;13.650;2022-10-16T01:58:51;4.20;;;2.77;;
18917;SDS011;9591;52.742;13.650;2022-10-16T02:01:44;4.13;;;2.73;;
18917;SDS011;9591;52.742;13.650;2022-10-16T02:04:34;3.20;;;2.80;;
18917;SDS011;9591;52.742;13.650;2022-10-16T02:07:23;2.97;;;2.70;;
18917;SDS011;9591;52.742;13.650;2022-10-16T02:10:10;3.13;;;2.37;;
18917;SDS011;9591;52.742;13.650;2022-10-16T02:12:59;4.50;;;2.50;;
18917;SDS011;9591;52.742;13.650;2022-10-16T02:15:49;4.53;;;2.60;;
18917;SDS011;9591;52.742;13.650;2022-10-16T02:18:40;3.50;;;2.40;;
18917;SDS011;9591;52.742;13.650;2022-10-16T02:21:29;3.50;;;2.40;;
18917;SDS011;9591;52.742;13.650;2022-10-16T02:24:24;6.93;;;2.43;;
18917;SDS011;9591;52.742;13.650;2022-10-16T02:27:19;3.00;;;2.70;;
18917;SDS011;9591;52.742;13.650;2022-10-16T02:30:16;2.73;;;2.30;;
18917;SDS011;9591;52.742;13.650;2022-10-16T02:33:10;2.90;;;2.67;;
18917;SDS011;9591;52.742;13.650;2022-10-16T02:36:00;5.47;;;2.40;;
18917;SDS011;9591;52.742;13.650;2022-10-16T02:38:47;4.13;;;2.10;;
18917;SDS011;9591;52.742;13.650;2022-10-16T02:41:34;2.97;;;2.63;;
18917;SDS011;9591;52.742;13.650;2022-10-16T02:44:21;2.73;;;2.30;;
18917;SDS011;9591;52.742;13.650;2022-10-16T02:47:09;3.37;;;2.43;;
18917;SDS011;9591;52.742;13.650;2022-10-16T02:49:58;4.77;;;2.67;;
18917;SDS011;9591;52.742;13.650;2022-10-16T02:52:46;5.90;;;2.63;;
18917;SDS011;9591;52.742;13.650;2022-10-16T02:55:33;2.37;;;2.17;;
18917;SDS011;9591;52.742;13.650;2022-10-16T02:58:19;2.80;;;2.40;;
18917;SDS011;9591;52.742;13.650;2022-10-16T03:01:07;9.33;;;2.43;;
18917;SDS011;9591;52.742;13.650;2022-10-16T03:03:53;4.63;;;2.87;;
18917;SDS011;9591;52.742;13.650;2022-10-16T03:06:40;2.67;;;2.37;;
18917;SDS011;9591;52.742;13.650;2022-10-16T03:09:29;2.30;;;2.10;;
18917;SDS011;9591;52.742;13.650;2022-10-16T03:12:15;4.50;;;2.60;;
18917;SDS011;9591;52.742;13.650;2022-10-16T03:15:02;2.13;;;1.93;;
18917;SDS011;9591;52.742;13.650;2022-10-16T03:17:50;3.40;;;2.30;;
18917;SDS011;9591;52.742;13.650;2022-10-16T03:20:37;4.03;;;2.50;;
18917;SDS011;9591;52.742;13.650;2022-10-16T03:23:23;3.93;;;2.30;;
18917;SDS011;9591;52.742;13.650;2022-10-16T03:26:12;2.53;;;2.30;;
18917;SDS011;9591;52.742;13.650;2022-10-16T03:28:59;8.03;;;2.40;;
18917;SDS011;9591;52.742;13.650;2022-10-16T03:31:47;3.83;;;2.37;;
18917;SDS011;9591;52.742;13.650;2022-10-16T03:34:34;5.77;;;2.10;;
18917;SDS011;9591;52.742;13.650;2022-10-16T03:37:21;2.33;;;2.13;;
18917;SDS011;9591;52.742;13.650;2022-10-16T03:40:09;2.57;;;2.27;;
18917;SDS011;9591;52.742;13.650;2022-10-16T03:42:57;2.67;;;2.43;;
18917;SDS011;9591;52.742;13.650;2022-10-16T03:45:44;5.63;;;2.40;;
18917;SDS011;9591;52.742;13.650;2022-10-16T03:48:31;5.17;;;2.20;;
18917;SDS011;9591;52.742;13.650;2022-10-16T03:51:17;5.87;;;2.13;;
18917;SDS011;9591;52.742;13.650;2022-10-16T03:54:04;2.60;;;2.10;;
18917;SDS011;9591;52.742;13.650;2022-10-16T03:56:51;2.53;;;2.33;;
18917;SDS011;9591;52.742;13.650;2022-10-16T03:59:39;5.03;;;2.70;;
18917;SDS011;9591;52.742;13.650;2022-10-16T04:02:26;2.43;;;2.20;;
18917;SDS011;9591;52.742;13.650;2022-10-16T04:05:13;4.03;;;2.40;;
18917;SDS011;9591;52.742;13.650;2022-10-16T04:07:59;3.23;;;2.30;;
18917;SDS011;9591;52.742;13.650;2022-10-16T04:10:46;3.67;;;1.93;;
18917;SDS011;9591;52.742;13.650;2022-10-16T04:13:33;7.73;;;2.20;;
18917;SDS011;9591;52.742;13.650;2022-10-16T04:16:21;2.33;;;1.93;;
18917;SDS011;9591;52.742;13.650;2022-10-16T04:19:08;7.43;;;2.73;;
18917;SDS011;9591;52.742;13.650;2022-10-16T04:21:55;3.43;;;2.33;;
18917;SDS011;9591;52.742;13.650;2022-10-16T04:24:42;6.93;;;2.20;;
18917;SDS011;9591;52.742;13.650;2022-10-16T04:27:29;6.13;;;2.53;;
18917;SDS011;9591;52.742;13.650;2022-10-16T04:30:16;3.37;;;1.83;;
18917;SDS011;9591;52.742;13.650;2022-10-16T04:33:04;6.30;;;2.00;;
18917;SDS011;9591;52.742;13.650;2022-10-16T04:35:56;4.27;;;2.00;;
18917;SDS011;9591;52.742;13.650;2022-10-16T04:38:43;3.97;;;2.27;;
18917;SDS011;9591;52.742;13.650;2022-10-16T04:41:30;3.63;;;2.20;;
18917;SDS011;9591;52.742;13.650;2022-10-16T04:44:17;2.33;;;1.80;;
18917;SDS011;9591;52.742;13.650;2022-10-16T04:47:03;4.07;;;2.27;;
18917;SDS011;9591;52.742;13.650;2022-10-16T04:49:52;4.03;;;2.17;;
18917;SDS011;9591;52.742;13.650;2022-10-16T04:52:38;3.60;;;2.90;;
18917;SDS011;9591;52.742;13.650;2022-10-16T04:55:25;3.83;;;1.93;;
18917;SDS011;9591;52.742;13.650;2022-10-16T04:58:12;3.20;;;2.40;;
18917;SDS011;9591;52.742;13.650;2022-10-16T05:00:59;4.87;;;2.23;;
18917;SDS011;9591;52.742;13.650;2022-10-16T05:03:46;2.83;;;2.10;;
18917;SDS011;9591;52.742;13.650;2022-10-16T05:06:34;2.23;;;2.07;;
18917;SDS011;9591;52.742;13.650;2022-10-16T05:09:21;2.10;;;1.90;;
18917;SDS011;9591;52.742;13.650;2022-10-16T05:12:07;2.50;;;2.30;;
18917;SDS011;9591;52.742;13.650;2022-10-16T05:14:55;2.67;;;2.00;;
18917;SDS011;9591;52.742;13.650;2022-10-16T05:17:43;4.40;;;2.20;;
18917;SDS011;9591;52.742;13.650;2022-10-16T05:20:30;3.00;;;2.00;;
18917;SDS011;9591;52.742;13.650;2022-10-16T05:23:18;5.37;;;2.47;;
18917;SDS011;9591;52.742;13.650;2022-10-16T05:26:05;2.70;;;2.40;;
18917;SDS011;9591;52.742;13.650;2022-10-16T05:28:52;4.93;;;2.57;;
18917;SDS011;9591;52.742;13.650;2022-10-16T05:31:39;5.23;;;2.20;;
18917;SDS011;9591;52.742;13.650;2022-10-16T05:34:25;4.70;;;3.03;;
18917;SDS011;9591;52.742;13.650;2022-10-16T05:37:12;4.50;;;2.40;;
18917;SDS011;9591;52.742;13.650;2022-10-16T05:40:01;4.50;;;2.40;;
18917;SDS011;9591;52.742;13.650;2022-10-16T05:42:47;3.77;;;2.20;;
18917;SDS011;9591;52.742;13.650;2022-10-16T05:45:34;2.90;;;2.30;;
18917;SDS011;9591;52.742;13.650;2022-10-16T05:48:21;2.30;;;2.10;;
18917;SDS011;9591;52.742;13.650;2022-10-16T05:51:11;3.57;;;2.40;;
18917;SDS011;9591;52.742;13.650;2022-10-16T05:53:59;2.40;;;2.20;;
18917;SDS011;9591;52.742;13.650;2022-10-16T05:56:48;2.33;;;2.13;;
18917;SDS011;9591;52.742;13.650;2022-10-16T05:59:34;3.83;;;1.97;;
18917;SDS011;9591;52.742;13.650;2022-10-16T06:02:21;5.03;;;2.03;;
18917;SDS011;9591;52.742;13.650;2022-10-16T06:05:08;3.97;;;2.40;;
18917;SDS011;9591;52.742;13.650;2022-10-16T06:07:55;6.50;;;2.43;;
18917;SDS011;9591;52.742;13.650;2022-10-16T06:10:42;3.73;;;2.03;;
18917;SDS011;9591;52.742;13.650;2022-10-16T06:13:31;3.53;;;2.20;;
18917;SDS011;9591;52.742;13.650;2022-10-16T06:16:18;3.27;;;1.90;;
18917;SDS011;9591;52.742;13.650;2022-10-16T06:19:04;2.53;;;2.17;;
18917;SDS011;9591;52.742;13.650;2022-10-16T06:21:53;4.33;;;2.00;;
18917;SDS011;9591;52.742;13.650;2022-10-16T06:24:40;3.30;;;2.33;;
18917;SDS011;9591;52.742;13.650;2022-10-16T06:27:26;3.30;;;2.30;;
18917;SDS011;9591;52.742;13.650;2022-10-16T06:30:15;2.20;;;2.00;;
18917;SDS011;9591;52.742;13.650;2022-10-16T06:33:01;5.47;;;2.07;;
18917;SDS011;9591;52.742;13.650;2022-10-16T06:35:48;3.37;;;2.20;;
18917;SDS011;9591;52.742;13.650;2022-10-16T06:38:35;7.20;;;2.57;;
18917;SDS011;9591;52.742;13.650;2022-10-16T06:41:23;2.67;;;2.37;;
18917;SDS011;9591;52.742;13.650;2022-10-16T06:44:09;4.47;;;2.80;;
18917;SDS011;9591;52.742;13.650;2022-10-16T06:46:57;3.13;;;2.73;;
18917;SDS011;9591;52.742;13.650;2022-10-16T06:49:44;3.43;;;2.70;;
18917;SDS011;9591;52.742;13.650;2022-10-16T06:52:38;2.50;;;2.30;;
18917;SDS011;9591;52.742;13.650;2022-10-16T06:55:25;3.77;;;2.60;;
18917;SDS011;9591;52.742;13.650;2022-10-16T06:58:12;3.03;;;2.47;;
18917;SDS011;9591;52.742;13.650;2022-10-16T07:00:59;4.90;;;2.90;;
18917;SDS011;9591;52.742;13.650;2022-10-16T07:03:47;3.47;;;2.50;;
18917;SDS011;9591;52.742;13.650;2022-10-16T07:06:34;3.67;;;2.03;;
18917;SDS011;9591;52.742;13.650;2022-10-16T07:09:20;3.73;;;2.90;;
18917;SDS011;9591;52.742;13.650;2022-10-16T07:12:07;4.03;;;2.00;;
18917;SDS011;9591;52.742;13.650;2022-10-16T07:14:54;4.87;;;2.50;;
18917;SDS011;9591;52.742;13.650;2022-10-16T07:17:41;4.57;;;2.20;;
18917;SDS011;9591;52.742;13.650;2022-10-16T07:20:29;3.57;;;2.17;;
18917;SDS011;9591;52.742;13.650;2022-10-16T07:23:16;2.60;;;2.17;;
18917;SDS011;9591;52.742;13.650;2022-10-16T07:26:03;4.90;;;2.40;;
18917;SDS011;9591;52.742;13.650;2022-10-16T07:28:50;6.50;;;2.20;;
18917;SDS011;9591;52.742;13.650;2022-10-16T07:31:38;4.60;;;2.20;;
18917;SDS011;9591;52.742;13.650;2022-10-16T07:34:24;3.00;;;2.10;;
18917;SDS011;9591;52.742;13.650;2022-10-16T07:37:14;4.33;;;1.97;;
18917;SDS011;9591;52.742;13.650;2022-10-16T07:40:00;2.43;;;2.10;;
18917;SDS011;9591;52.742;13.650;2022-10-16T07:42:47;3.50;;;2.20;;
18917;SDS011;9591;52.742;13.650;2022-10-16T07:45:34;2.17;;;1.97;;
18917;SDS011;9591;52.742;13.650;2022-10-16T07:48:21;6.60;;;2.20;;
18917;SDS011;9591;52.742;13.650;2022-10-16T07:51:10;4.57;;;2.30;;
18917;SDS011;9591;52.742;13.650;2022-10-16T07:54:00;4.37;;;2.50;;
18917;SDS011;9591;52.742;13.650;2022-10-16T07:56:46;4.77;;;2.37;;
18917;SDS011;9591;52.742;13.650;2022-10-16T07:59:33;2.63;;;2.43;;
18917;SDS011;9591;52.742;13.650;2022-10-16T08:02:20;2.50;;;2.30;;
18917;SDS011;9591;52.742;13.650;2022-10-16T08:05:07;3.97;;;2.03;;
18917;SDS011;9591;52.742;13.650;2022-10-16T08:07:55;5.23;;;2.33;;
18917;SDS011;9591;52.742;13.650;2022-10-16T08:10:43;2.10;;;1.90;;
18917;SDS011;9591;52.742;13.650;2022-10-16T08:13:31;4.73;;;1.90;;
18917;SDS011;9591;52.742;13.650;2022-10-16T08:16:18;2.77;;;2.10;;
18917;SDS011;9591;52.742;13.650;2022-10-16T08:19:05;4.00;;;2.10;;
18917;SDS011;9591;52.742;13.650;2022-10-16T08:21:52;7.90;;;1.97;;
18917;SDS011;9591;52.742;13.650;2022-10-16T08:24:39;5.93;;;1.87;;
18917;SDS011;9591;52.742;13.650;2022-10-16T08:27:31;2.20;;;2.00;;
18917;SDS011;9591;52.742;13.650;2022-10-16T08:30:19;2.97;;;2.00;;
18917;SDS011;9591;52.742;13.650;2022-10-16T08:33:06;2.97;;;1.80;;
18917;SDS011;9591;52.742;13.650;2022-10-16T08:35:53;3.57;;;2.53;;
18917;SDS011;9591;52.742;13.650;2022-10-16T08:38:40;4.00;;;2.20;;
18917;SDS011;9591;52.742;13.650;2022-10-16T08:41:30;2.70;;;1.90;;
18917;SDS011;9591;52.742;13.650;2022-10-16T08:44:33;2.37;;;2.17;;
18917;SDS011;9591;52.742;13.650;2022-10-16T08:47:34;6.47;;;2.10;;
18917;SDS011;9591;52.742;13.650;2022-10-16T08:50:30;4.83;;;1.97;;
18917;SDS011;9591;52.742;13.650;2022-10-16T08:53:20;2.27;;;1.70;;
18917;SDS011;9591;52.742;13.650;2022-10-16T08:56:11;4.43;;;2.33;;
18917;SDS011;9591;52.742;13.650;2022-10-16T08:58:58;1.97;;;1.87;;
18917;SDS011;9591;52.742;13.650;2022-10-16T09:01:49;2.53;;;1.87;;
18917;SDS011;9591;52.742;13.650;2022-10-16T09:04:44;3.90;;;2.20;;
18917;SDS011;9591;52.742;13.650;2022-10-16T09:07:42;3.00;;;2.20;;
18917;SDS011;9591;52.742;13.650;2022-10-16T09:10:42;3.47;;;2.30;;
18917;SDS011;9591;52.742;13.650;2022-10-16T09:13:43;3.47;;;2.30;;
18917;SDS011;9591;52.742;13.650;2022-10-16T09:16:37;2.70;;;2.10;;
18917;SDS011;9591;52.742;13.650;2022-10-16T09:19:40;5.07;;;3.00;;
18917;SDS011;9591;52.742;13.650;2022-10-16T09:22:32;5.87;;;1.70;;
18917;SDS011;9591;52.742;13.650;2022-10-16T09:25:22;7.40;;;1.67;;
18917;SDS011;9591;52.742;13.650;2022-10-16T09:28:16;2.57;;;2.07;;
18917;SDS011;9591;52.742;13.650;2022-10-16T09:31:03;2.00;;;1.80;;
18917;SDS011;9591;52.742;13.650;2022-10-16T09:33:51;2.30;;;2.10;;
18917;SDS011;9591;52.742;13.650;2022-10-16T09:36:43;2.50;;;2.13;;
18917;SDS011;9591;52.742;13.650;2022-10-16T09:39:31;3.13;;;1.97;;
18917;SDS011;9591;52.742;13.650;2022-10-16T09:42:31;3.20;;;2.40;;
18917;SDS011;9591;52.742;13.650;2022-10-16T09:45:22;3.33;;;2.27;;
18917;SDS011;9591;52.742;13.650;2022-10-16T09:48:10;2.50;;;2.30;;
18917;SDS011;9591;52.742;13.650;2022-10-16T09:50:59;8.37;;;2.40;;
18917;SDS011;9591;52.742;13.650;2022-10-16T09:53:53;3.00;;;2.60;;
18917;SDS011;9591;52.742;13.650;2022-10-16T09:56:41;2.30;;;1.93;;
18917;SDS011;9591;52.742;13.650;2022-10-16T09:59:31;2.60;;;2.40;;
18917;SDS011;9591;52.742;13.650;2022-10-16T10:02:19;2.67;;;2.47;;
18917;SDS011;9591;52.742;13.650;2022-10-16T10:05:20;5.50;;;2.30;;
18917;SDS011;9591;52.742;13.650;2022-10-16T10:08:12;4.93;;;2.53;;
18917;SDS011;9591;52.742;13.650;2022-10-16T10:11:06;2.63;;;2.43;;
18917;SDS011;9591;52.742;13.650;2022-10-16T10:14:03;2.43;;;2.20;;
18917;SDS011;9591;52.742;13.650;2022-10-16T10:16:51;2.77;;;2.20;;
18917;SDS011;9591;52.742;13.650;2022-10-16T10:19:40;2.20;;;2.10;;
18917;SDS011;9591;52.742;13.650;2022-10-16T10:22:32;3.70;;;2.20;;
18917;SDS011;9591;52.742;13.650;2022-10-16T10:25:39;6.77;;;2.20;;
18917;SDS011;9591;52.742;13.650;2022-10-16T10:28:42;2.07;;;1.60;;
18917;SDS011;9591;52.742;13.650;2022-10-16T10:31:39;5.00;;;2.63;;
18917;SDS011;9591;52.742;13.650;2022-10-16T10:34:52;2.17;;;1.97;;
18917;SDS011;9591;52.742;13.650;2022-10-16T10:37:53;2.23;;;1.87;;
18917;SDS011;9591;52.742;13.650;2022-10-16T10:41:05;3.40;;;1.93;;
18917;SDS011;9591;52.742;13.650;2022-10-16T10:44:10;2.23;;;2.03;;
18917;SDS011;9591;52.742;13.650;2022-10-16T10:47:10;3.33;;;2.10;;
18917;SDS011;9591;52.742;13.650;2022-10-16T10:50:07;2.10;;;1.90;;
18917;SDS011;9591;52.742;13.650;2022-10-16T10:53:05;5.20;;;2.10;;
18917;SDS011;9591;52.742;13.650;2022-10-16T10:56:07;3.77;;;1.97;;
18917;SDS011;9591;52.742;13.650;2022-10-16T10:59:05;1.67;;;1.57;;
18917;SDS011;9591;52.742;13.650;2022-10-16T11:02:04;4.43;;;1.70;;
18917;SDS011;9591;52.742;13.650;2022-10-16T11:05:06;1.97;;;1.80;;
18917;SDS011;9591;52.742;13.650;2022-10-16T11:08:19;1.87;;;1.67;;
18917;SDS011;9591;52.742;13.650;2022-10-16T11:11:14;1.60;;;1.50;;
18917;SDS011;9591;52.742;13.650;2022-10-16T11:14:05;7.10;;;1.77;;
18917;SDS011;9591;52.742;13.650;2022-10-16T11:17:01;3.40;;;1.57;;
18917;SDS011;9591;52.742;13.650;2022-10-16T11:19:54;3.70;;;1.50;;
18917;SDS011;9591;52.742;13.650;2022-10-16T11:22:46;1.43;;;1.33;;
18917;SDS011;9591;52.742;13.650;2022-10-16T11:25:37;5.50;;;1.57;;
18917;SDS011;9591;52.742;13.650;2022-10-16T11:28:26;2.00;;;1.47;;
18917;SDS011;9591;52.742;13.650;2022-10-16T11:31:22;1.70;;;1.50;;
18917;SDS011;9591;52.742;13.650;2022-10-16T11:34:16;3.97;;;1.50;;
18917;SDS011;9591;52.742;13.650;2022-10-16T11:37:08;1.67;;;1.57;;
18917;SDS011;9591;52.742;13.650;2022-10-16T11:40:03;4.87;;;1.33;;
18917;SDS011;9591;52.742;13.650;2022-10-16T11:43:04;1.50;;;1.40;;
18917;SDS011;9591;52.742;13.650;2022-10-16T11:46:02;3.57;;;1.40;;
18917;SDS011;9591;52.742;13.650;2022-10-16T11:49:00;9.10;;;1.50;;
18917;SDS011;9591;52.742;13.650;2022-10-16T11:51:56;4.57;;;1.27;;
18917;SDS011;9591;52.742;13.650;2022-10-16T11:54:50;1.57;;;1.10;;
18917;SDS011;9591;52.742;13.650;2022-10-16T11:57:42;1.37;;;1.27;;
18917;SDS011;9591;52.742;13.650;2022-10-16T12:00:35;2.50;;;1.10;;
18917;SDS011;9591;52.742;13.650;2022-10-16T12:03:27;5.50;;;1.60;;
18917;SDS011;9591;52.742;13.650;2022-10-16T12:06:30;2.20;;;1.20;;
18917;SDS011;9591;52.742;13.650;2022-10-16T12:09:21;3.33;;;1.30;;
18917;SDS011;9591;52.742;13.650;2022-10-16T12:12:24;2.40;;;0.83;;
18917;SDS011;9591;52.742;13.650;2022-10-16T12:15:21;3.80;;;1.13;;
18917;SDS011;9591;52.742;13.650;2022-10-16T12:18:30;1.73;;;1.17;;
18917;SDS011;9591;52.742;13.650;2022-10-16T12:21:17;7.60;;;1.13;;
18917;SDS011;9591;52.742;13.650;2022-10-16T12:24:06;1.80;;;1.00;;
18917;SDS011;9591;52.742;13.650;2022-10-16T12:27:19;1.20;;;1.10;;
18917;SDS011;9591;52.742;13.650;2022-10-16T12:30:14;2.60;;;1.00;;
18917;SDS011;9591;52.742;13.650;2022-10-16T12:33:16;1.00;;;0.90;;
18917;SDS011;9591;52.742;13.650;2022-10-16T12:36:09;3.23;;;1.10;;
18917;SDS011;9591;52.742;13.650;2022-10-16T12:39:00;3.27;;;1.10;;
18917;SDS011;9591;52.742;13.650;2022-10-16T12:41:53;1.83;;;1.20;;
18917;SDS011;9591;52.742;13.650;2022-10-16T12:44:47;1.90;;;1.03;;
18917;SDS011;9591;52.742;13.650;2022-10-16T12:47:38;0.97;;;0.90;;
18917;SDS011;9591;52.742;13.650;2022-10-16T12:50:36;1.10;;;1.00;;
18917;SDS011;9591;52.742;13.650;2022-10-16T12:53:25;1.50;;;1.00;;
18917;SDS011;9591;52.742;13.650;2022-10-16T12:56:14;1.57;;;1.10;;
18917;SDS011;9591;52.742;13.650;2022-10-16T12:59:14;1.33;;;0.80;;
18917;SDS011;9591;52.742;13.650;2022-10-16T13:02:13;1.10;;;1.00;;
18917;SDS011;9591;52.742;13.650;2022-10-16T13:05:19;1.37;;;1.00;;
18917;SDS011;9591;52.742;13.650;2022-10-16T13:08:22;1.20;;;0.80;;
18917;SDS011;9591;52.742;13.650;2022-10-16T13:11:23;4.87;;;0.90;;
18917;SDS011;9591;52.742;13.650;2022-10-16T13:14:27;1.00;;;1.00;;
18917;SDS011;9591;52.742;13.650;2022-10-16T13:17:31;4.30;;;1.07;;
18917;SDS011;9591;52.742;13.650;2022-10-16T13:20:26;1.87;;;0.80;;
18917;SDS011;9591;52.742;13.650;2022-10-16T13:23:20;3.97;;;0.83;;
18917;SDS011;9591;52.742;13.650;2022-10-16T13:26:17;1.90;;;0.67;;
18917;SDS011;9591;52.742;13.650;2022-10-16T13:29:09;4.07;;;1.00;;
18917;SDS011;9591;52.742;13.650;2022-10-16T13:31:58;3.30;;;0.70;;
18917;SDS011;9591;52.742;13.650;2022-10-16T13:34:48;0.63;;;0.63;;
18917;SDS011;9591;52.742;13.650;2022-10-16T13:37:35;0.60;;;0.60;;
18917;SDS011;9591;52.742;13.650;2022-10-16T13:40:23;0.63;;;0.63;;
18917;SDS011;9591;52.742;13.650;2022-10-16T13:43:11;4.93;;;0.70;;
18917;SDS011;9591;52.742;13.650;2022-10-16T13:45:59;5.87;;;0.70;;
18917;SDS011;9591;52.742;13.650;2022-10-16T13:48:57;4.53;;;0.93;;
18917;SDS011;9591;52.742;13.650;2022-10-16T13:51:53;0.83;;;0.83;;
18917;SDS011;9591;52.742;13.650;2022-10-16T13:54:41;0.70;;;0.70;;
18917;SDS011;9591;52.742;13.650;2022-10-16T13:57:27;3.73;;;0.80;;
18917;SDS011;9591;52.742;13.650;2022-10-16T14:00:19;0.70;;;0.67;;
18917;SDS011;9591;52.742;13.650;2022-10-16T14:03:11;2.33;;;0.73;;
18917;SDS011;9591;52.742;13.650;2022-10-16T14:06:03;1.80;;;0.70;;
18917;SDS011;9591;52.742;13.650;2022-10-16T14:08:57;0.80;;;0.63;;
18917;SDS011;9591;52.742;13.650;2022-10-16T14:11:48;0.93;;;0.70;;
18917;SDS011;9591;52.742;13.650;2022-10-16T14:14:39;0.87;;;0.70;;
18917;SDS011;9591;52.742;13.650;2022-10-16T14:17:28;0.70;;;0.70;;
18917;SDS011;9591;52.742;13.650;2022-10-16T14:20:17;2.13;;;0.70;;
18917;SDS011;9591;52.742;13.650;2022-10-16T14:23:18;1.77;;;0.70;;
18917;SDS011;9591;52.742;13.650;2022-10-16T14:26:14;4.03;;;0.77;;
18917;SDS011;9591;52.742;13.650;2022-10-16T14:29:04;1.30;;;0.70;;
18917;SDS011;9591;52.742;13.650;2022-10-16T14:31:58;4.37;;;0.77;;
18917;SDS011;9591;52.742;13.650;2022-10-16T14:34:52;2.87;;;0.70;;
18917;SDS011;9591;52.742;13.650;2022-10-16T14:37:39;0.60;;;0.60;;
18917;SDS011;9591;52.742;13.650;2022-10-16T14:40:28;0.70;;;0.70;;
18917;SDS011;9591;52.742;13.650;2022-10-16T14:43:19;2.27;;;0.70;;
18917;SDS011;9591;52.742;13.650;2022-10-16T14:46:20;1.90;;;0.60;;
18917;SDS011;9591;52.742;13.650;2022-10-16T14:49:15;0.83;;;0.50;;
18917;SDS011;9591;52.742;13.650;2022-10-16T14:52:07;0.93;;;0.63;;
18917;SDS011;9591;52.742;13.650;2022-10-16T14:54:56;1.03;;;0.80;;
18917;SDS011;9591;52.742;13.650;2022-10-16T14:57:44;2.23;;;0.67;;
18917;SDS011;9591;52.742;13.650;2022-10-16T15:00:32;0.53;;;0.53;;
18917;SDS011;9591;52.742;13.650;2022-10-16T15:03:18;0.60;;;0.60;;
18917;SDS011;9591;52.742;13.650;2022-10-16T15:06:08;7.27;;;0.80;;
18917;SDS011;9591;52.742;13.650;2022-10-16T15:08:57;5.00;;;0.70;;
18917;SDS011;9591;52.742;13.650;2022-10-16T15:11:44;1.90;;;0.60;;
18917;SDS011;9591;52.742;13.650;2022-10-16T15:14:33;0.93;;;0.70;;
18917;SDS011;9591;52.742;13.650;2022-10-16T15:17:20;1.30;;;0.67;;
18917;SDS011;9591;52.742;13.650;2022-10-16T15:20:06;2.53;;;0.60;;
18917;SDS011;9591;52.742;13.650;2022-10-16T15:22:53;0.60;;;0.60;;
18917;SDS011;9591;52.742;13.650;2022-10-16T15:25:42;3.30;;;0.70;;
18917;SDS011;9591;52.742;13.650;2022-10-16T15:28:30;6.43;;;2.33;;
18917;SDS011;9591;52.742;13.650;2022-10-16T15:31:18;3.17;;;0.70;;
18917;SDS011;9591;52.742;13.650;2022-10-16T15:34:08;4.40;;;0.90;;
18917;SDS011;9591;52.742;13.650;2022-10-16T15:36:55;6.03;;;0.90;;
18917;SDS011;9591;52.742;13.650;2022-10-16T15:39:43;3.40;;;0.93;;
18917;SDS011;9591;52.742;13.650;2022-10-16T15:42:29;4.77;;;0.70;;
18917;SDS011;9591;52.742;13.650;2022-10-16T15:45:16;3.87;;;1.10;;
18917;SDS011;9591;52.742;13.650;2022-10-16T15:48:05;5.87;;;0.90;;
18917;SDS011;9591;52.742;13.650;2022-10-16T15:50:52;2.73;;;0.80;;
18917;SDS011;9591;52.742;13.650;2022-10-16T15:53:39;4.57;;;1.07;;
18917;SDS011;9591;52.742;13.650;2022-10-16T15:56:27;10.60;;;1.00;;
18917;SDS011;9591;52.742;13.650;2022-10-16T15:59:15;0.97;;;0.97;;
18917;SDS011;9591;52.742;13.650;2022-10-16T16:02:02;4.37;;;0.93;;
18917;SDS011;9591;52.742;13.650;2022-10-16T16:04:50;1.67;;;1.00;;
18917;SDS011;9591;52.742;13.650;2022-10-16T16:07:39;1.53;;;0.80;;
18917;SDS011;9591;52.742;13.650;2022-10-16T16:10:56;5.27;;;1.37;;
18917;SDS011;9591;52.742;13.650;2022-10-16T16:13:44;7.80;;;1.20;;
18917;SDS011;9591;52.742;13.650;2022-10-16T16:16:31;1.80;;;1.13;;
18917;SDS011;9591;52.742;13.650;2022-10-16T16:19:23;4.20;;;0.87;;
18917;SDS011;9591;52.742;13.650;2022-10-16T16:22:11;4.50;;;1.13;;
18917;SDS011;9591;52.742;13.650;2022-10-16T16:24:58;2.90;;;1.00;;
18917;SDS011;9591;52.742;13.650;2022-10-16T16:27:46;0.90;;;0.90;;
18917;SDS011;9591;52.742;13.650;2022-10-16T16:30:33;0.87;;;0.87;;
18917;SDS011;9591;52.742;13.650;2022-10-16T16:33:20;3.87;;;1.17;;
18917;SDS011;9591;52.742;13.650;2022-10-16T16:36:07;2.40;;;0.70;;
18917;SDS011;9591;52.742;13.650;2022-10-16T16:39:02;5.23;;;1.13;;
18917;SDS011;9591;52.742;13.650;2022-10-16T16:41:55;1.10;;;1.00;;
18917;SDS011;9591;52.742;13.650;2022-10-16T16:44:43;6.40;;;1.10;;
18917;SDS011;9591;52.742;13.650;2022-10-16T16:47:30;3.80;;;1.73;;
18917;SDS011;9591;52.742;13.650;2022-10-16T16:50:18;1.30;;;1.00;;
18917;SDS011;9591;52.742;13.650;2022-10-16T16:53:06;2.30;;;1.00;;
18917;SDS011;9591;52.742;13.650;2022-10-16T16:55:54;4.43;;;1.10;;
18917;SDS011;9591;52.742;13.650;2022-10-16T16:58:48;2.13;;;1.27;;
18917;SDS011;9591;52.742;13.650;2022-10-16T17:01:37;3.37;;;1.10;;
18917;SDS011;9591;52.742;13.650;2022-10-16T17:04:24;7.10;;;1.33;;
18917;SDS011;9591;52.742;13.650;2022-10-16T17:07:11;1.57;;;1.33;;